sensor_id;sensor_type;location;lat;lon;timestamp;pressure;altitude;pressure_sealevel;temperature;humidity
47897;BME280;39629;51.400;5.494;2023-12-28T00:02:55;76691.94;;;-145.58;100.00
47897;BME280;39629;51.400;5.494;2023-12-28T00:07:58;76700.00;;;-145.58;100.00
47897;BME280;39629;51.400;5.494;2023-12-28T00:13:00;76712.06;;;-145.58;100.00
47897;BME280;39629;51.400;5.494;2023-12-28T00:18:02;76693.97;;;-145.58;100.00
47897;BME280;39629;51.400;5.494;2023-12-28T00:23:06;76706.03;;;-145.58;100.00
47897;BME280;39629;51.400;5.494;2023-12-28T00:28:07;76693.97;;;-145.58;100.00
47897;BME280;39629;51.400;5.494;2023-12-28T00:33:09;76706.03;;;-145.58;100.00
47897;BME280;39629;51.400;5.494;2023-12-28T00:38:12;76734.16;;;-145.58;100.00
47897;BME280;39629;51.400;5.494;2023-12-28T00:43:14;76708.03;;;-145.58;100.00
47897;BME280;39629;51.400;5.494;2023-12-28T00:48:16;76706.03;;;-145.58;100.00
47897;BME280;39629;51.400;5.494;2023-12-28T00:53:19;76726.13;;;-145.58;100.00
47897;BME280;39629;51.400;5.494;2023-12-28T00:58:21;76720.09;;;-145.58;100.00
47897;BME280;39629;51.400;5.494;2023-12-28T01:03:23;76706.03;;;-145.58;100.00
47897;BME280;39629;51.400;5.494;2023-12-28T01:08:26;76710.03;;;-145.58;100.00
47897;BME280;39629;51.400;5.494;2023-12-28T01:13:28;76714.06;;;-145.58;100.00
47897;BME280;39629;51.400;5.494;2023-12-28T01:18:31;76724.09;;;-145.58;100.00
47897;BME280;39629;51.400;5.494;2023-12-28T01:23:33;76714.06;;;-145.58;100.00
47897;BME280;39629;51.400;5.494;2023-12-28T01:28:35;76714.06;;;-145.58;100.00
47897;BME280;39629;51.400;5.494;2023-12-28T01:33:37;76720.09;;;-145.58;100.00
47897;BME280;39629;51.400;5.494;2023-12-28T01:38:41;76722.09;;;-145.58;100.00
47897;BME280;39629;51.400;5.494;2023-12-28T01:43:43;76722.09;;;-145.58;100.00
47897;BME280;39629;51.400;5.494;2023-12-28T01:48:45;76736.16;;;-145.58;100.00
47897;BME280;39629;51.400;5.494;2023-12-28T01:53:50;76740.19;;;-145.58;100.00
47897;BME280;39629;51.400;5.494;2023-12-28T01:58:53;76738.19;;;-145.58;100.00
47897;BME280;39629;51.400;5.494;2023-12-28T02:03:55;76754.25;;;-145.58;100.00
47897;BME280;39629;51.400;5.494;2023-12-28T02:08:58;76748.22;;;-145.58;100.00
47897;BME280;39629;51.400;5.494;2023-12-28T02:14:00;76754.25;;;-145.58;100.00
47897;BME280;39629;51.400;5.494;2023-12-28T02:19:07;76764.31;;;-145.58;100.00
47897;BME280;39629;51.400;5.494;2023-12-28T02:24:16;76764.31;;;-145.58;100.00
47897;BME280;39629;51.400;5.494;2023-12-28T02:29:19;76780.38;;;-145.58;100.00
47897;BME280;39629;51.400;5.494;2023-12-28T02:34:34;76768.31;;;-145.58;100.00
47897;BME280;39629;51.400;5.494;2023-12-28T02:39:39;76798.47;;;-145.58;100.00
47897;BME280;39629;51.400;5.494;2023-12-28T02:44:44;76792.44;;;-145.58;100.00
47897;BME280;39629;51.400;5.494;2023-12-28T02:49:46;76796.47;;;-145.58;100.00
47897;BME280;39629;51.400;5.494;2023-12-28T02:54:47;76794.47;;;-145.58;100.00
47897;BME280;39629;51.400;5.494;2023-12-28T02:59:50;76814.56;;;-145.58;100.00
47897;BME280;39629;51.400;5.494;2023-12-28T03:04:52;76820.59;;;-145.58;100.00
47897;BME280;39629;51.400;5.494;2023-12-28T03:09:54;76818.56;;;-145.58;100.00
47897;BME280;39629;51.400;5.494;2023-12-28T03:14:57;76814.56;;;-145.58;100.00
47897;BME280;39629;51.400;5.494;2023-12-28T03:19:59;76810.53;;;-145.58;100.00
47897;BME280;39629;51.400;5.494;2023-12-28T03:25:01;76806.53;;;-145.58;100.00
47897;BME280;39629;51.400;5.494;2023-12-28T03:30:08;76816.56;;;-145.58;100.00
47897;BME280;39629;51.400;5.494;2023-12-28T03:35:09;76832.66;;;-145.58;100.00
47897;BME280;39629;51.400;5.494;2023-12-28T03:40:11;76850.75;;;-145.58;100.00
47897;BME280;39629;51.400;5.494;2023-12-28T03:45:15;76820.59;;;-145.58;100.00
47897;BME280;39629;51.400;5.494;2023-12-28T03:50:17;76826.63;;;-145.58;100.00
47897;BME280;39629;51.400;5.494;2023-12-28T03:55:18;76820.59;;;-145.58;100.00
47897;BME280;39629;51.400;5.494;2023-12-28T04:00:21;76820.59;;;-145.58;100.00
47897;BME280;39629;51.400;5.494;2023-12-28T04:05:23;76804.50;;;-145.58;100.00
47897;BME280;39629;51.400;5.494;2023-12-28T04:10:29;76826.63;;;-145.58;100.00
47897;BME280;39629;51.400;5.494;2023-12-28T04:15:33;76810.53;;;-145.58;100.00
47897;BME280;39629;51.400;5.494;2023-12-28T04:20:35;76816.56;;;-145.58;100.00
47897;BME280;39629;51.400;5.494;2023-12-28T04:25:36;76808.53;;;-145.58;100.00
47897;BME280;39629;51.400;5.494;2023-12-28T04:30:39;76808.53;;;-145.58;100.00
47897;BME280;39629;51.400;5.494;2023-12-28T04:35:41;76796.47;;;-145.58;100.00
47897;BME280;39629;51.400;5.494;2023-12-28T04:40:43;76776.38;;;-145.58;100.00
47897;BME280;39629;51.400;5.494;2023-12-28T04:45:46;76784.41;;;-145.58;100.00
47897;BME280;39629;51.400;5.494;2023-12-28T04:50:48;76774.34;;;-145.58;100.00
47897;BME280;39629;51.400;5.494;2023-12-28T04:55:49;76778.38;;;-145.58;100.00
47897;BME280;39629;51.400;5.494;2023-12-28T05:00:52;76788.44;;;-145.58;100.00
47897;BME280;39629;51.400;5.494;2023-12-28T05:05:54;76766.31;;;-145.58;100.00
47897;BME280;39629;51.400;5.494;2023-12-28T05:10:56;76760.28;;;-145.58;100.00
47897;BME280;39629;51.400;5.494;2023-12-28T05:15:59;76752.25;;;-145.58;100.00
47897;BME280;39629;51.400;5.494;2023-12-28T05:21:02;76738.19;;;-145.58;100.00
47897;BME280;39629;51.400;5.494;2023-12-28T05:26:04;76726.13;;;-145.58;100.00
47897;BME280;39629;51.400;5.494;2023-12-28T05:31:07;76724.09;;;-145.58;100.00
47897;BME280;39629;51.400;5.494;2023-12-28T05:36:09;76714.06;;;-145.58;100.00
47897;BME280;39629;51.400;5.494;2023-12-28T05:41:11;76691.94;;;-145.58;100.00
47897;BME280;39629;51.400;5.494;2023-12-28T05:46:14;76730.13;;;-145.58;100.00
47897;BME280;39629;51.400;5.494;2023-12-28T05:51:15;76746.22;;;-145.58;100.00
47897;BME280;39629;51.400;5.494;2023-12-28T05:56:18;76722.09;;;-145.58;100.00
47897;BME280;39629;51.400;5.494;2023-12-28T06:01:21;76736.16;;;-145.58;100.00
47897;BME280;39629;51.400;5.494;2023-12-28T06:06:23;76728.13;;;-145.58;100.00
47897;BME280;39629;51.400;5.494;2023-12-28T06:11:25;76720.09;;;-145.58;100.00
47897;BME280;39629;51.400;5.494;2023-12-28T06:16:28;76732.16;;;-145.58;100.00
47897;BME280;39629;51.400;5.494;2023-12-28T06:21:33;76742.19;;;-145.58;100.00
47897;BME280;39629;51.400;5.494;2023-12-28T06:26:39;76754.25;;;-145.58;100.00
47897;BME280;39629;51.400;5.494;2023-12-28T06:31:42;76750.25;;;-145.58;100.00
47897;BME280;39629;51.400;5.494;2023-12-28T06:36:43;76750.25;;;-145.58;100.00
47897;BME280;39629;51.400;5.494;2023-12-28T06:41:47;76738.19;;;-145.58;100.00
47897;BME280;39629;51.400;5.494;2023-12-28T06:46:50;76748.22;;;-145.58;100.00
47897;BME280;39629;51.400;5.494;2023-12-28T06:51:51;76748.22;;;-145.58;100.00
47897;BME280;39629;51.400;5.494;2023-12-28T06:56:53;76764.31;;;-145.58;100.00
47897;BME280;39629;51.400;5.494;2023-12-28T07:01:56;76754.25;;;-145.58;100.00
47897;BME280;39629;51.400;5.494;2023-12-28T07:06:58;76764.31;;;-145.58;100.00
47897;BME280;39629;51.400;5.494;2023-12-28T07:12:00;76774.34;;;-145.58;100.00
47897;BME280;39629;51.400;5.494;2023-12-28T07:17:03;76806.53;;;-145.58;100.00
47897;BME280;39629;51.400;5.494;2023-12-28T07:22:05;76814.56;;;-145.58;100.00
47897;BME280;39629;51.400;5.494;2023-12-28T07:27:06;76820.59;;;-145.58;100.00
47897;BME280;39629;51.400;5.494;2023-12-28T07:32:09;76830.63;;;-145.58;100.00
47897;BME280;39629;51.400;5.494;2023-12-28T07:37:11;76810.53;;;-145.58;100.00
47897;BME280;39629;51.400;5.494;2023-12-28T07:42:13;76824.59;;;-145.58;100.00
47897;BME280;39629;51.400;5.494;2023-12-28T07:47:17;76860.78;;;-145.58;100.00
47897;BME280;39629;51.400;5.494;2023-12-28T07:52:18;76866.81;;;-145.58;100.00
47897;BME280;39629;51.400;5.494;2023-12-28T07:57:20;76874.84;;;-145.58;100.00
47897;BME280;39629;51.400;5.494;2023-12-28T08:02:23;76836.66;;;-145.58;100.00
47897;BME280;39629;51.400;5.494;2023-12-28T08:07:25;76866.81;;;-145.58;100.00
47897;BME280;39629;51.400;5.494;2023-12-28T08:12:27;76864.81;;;-145.58;100.00
47897;BME280;39629;51.400;5.494;2023-12-28T08:17:30;76866.81;;;-145.58;100.00
47897;BME280;39629;51.400;5.494;2023-12-28T08:22:31;76866.81;;;-145.58;100.00
47897;BME280;39629;51.400;5.494;2023-12-28T08:27:33;76858.78;;;-145.58;100.00
47897;BME280;39629;51.400;5.494;2023-12-28T08:32:37;76824.59;;;-145.58;100.00
47897;BME280;39629;51.400;5.494;2023-12-28T08:37:38;76832.66;;;-145.58;100.00
47897;BME280;39629;51.400;5.494;2023-12-28T08:42:40;76830.63;;;-145.58;100.00
47897;BME280;39629;51.400;5.494;2023-12-28T08:47:43;76822.59;;;-145.58;100.00
47897;BME280;39629;51.400;5.494;2023-12-28T08:52:45;76814.56;;;-145.58;100.00
47897;BME280;39629;51.400;5.494;2023-12-28T08:57:46;76810.53;;;-145.58;100.00
47897;BME280;39629;51.400;5.494;2023-12-28T09:02:50;76804.50;;;-145.58;100.00
47897;BME280;39629;51.400;5.494;2023-12-28T09:07:51;76822.59;;;-145.58;100.00
47897;BME280;39629;51.400;5.494;2023-12-28T09:12:53;76818.56;;;-145.58;100.00
47897;BME280;39629;51.400;5.494;2023-12-28T09:17:56;76838.69;;;-145.58;100.00
47897;BME280;39629;51.400;5.494;2023-12-28T09:22:58;76846.72;;;-145.58;100.00
47897;BME280;39629;51.400;5.494;2023-12-28T09:28:00;76854.75;;;-145.58;100.00
47897;BME280;39629;51.400;5.494;2023-12-28T09:33:03;76842.69;;;-145.58;100.00
47897;BME280;39629;51.400;5.494;2023-12-28T09:38:05;76842.69;;;-145.58;100.00
47897;BME280;39629;51.400;5.494;2023-12-28T09:43:12;76840.69;;;-145.58;100.00
47897;BME280;39629;51.400;5.494;2023-12-28T09:48:17;76840.69;;;-145.58;100.00
47897;BME280;39629;51.400;5.494;2023-12-28T09:53:19;76832.66;;;-145.58;100.00
47897;BME280;39629;51.400;5.494;2023-12-28T09:58:21;76828.63;;;-145.58;100.00
47897;BME280;39629;51.400;5.494;2023-12-28T10:03:24;76822.59;;;-145.58;100.00
47897;BME280;39629;51.400;5.494;2023-12-28T10:08:26;76828.63;;;-145.58;100.00
47897;BME280;39629;51.400;5.494;2023-12-28T10:13:28;76830.63;;;-145.58;100.00
47897;BME280;39629;51.400;5.494;2023-12-28T10:18:32;76814.56;;;-145.58;100.00
47897;BME280;39629;51.400;5.494;2023-12-28T10:23:35;76812.53;;;-145.58;100.00
47897;BME280;39629;51.400;5.494;2023-12-28T10:28:37;76812.53;;;-145.58;100.00
47897;BME280;39629;51.400;5.494;2023-12-28T10:33:42;76810.53;;;-145.58;100.00
47897;BME280;39629;51.400;5.494;2023-12-28T10:38:47;76804.50;;;-145.58;100.00
47897;BME280;39629;51.400;5.494;2023-12-28T10:44:00;76792.44;;;-145.58;100.00
47897;BME280;39629;51.400;5.494;2023-12-28T10:49:10;76782.41;;;-145.58;100.00
47897;BME280;39629;51.400;5.494;2023-12-28T10:54:23;76766.31;;;-145.58;100.00
47897;BME280;39629;51.400;5.494;2023-12-28T10:59:36;76752.25;;;-145.58;100.00
47897;BME280;39629;51.400;5.494;2023-12-28T11:04:46;76744.22;;;-145.58;100.00
47897;BME280;39629;51.400;5.494;2023-12-28T11:09:49;76730.13;;;-145.58;100.00
47897;BME280;39629;51.400;5.494;2023-12-28T11:14:53;76738.19;;;-145.58;100.00
47897;BME280;39629;51.400;5.494;2023-12-28T11:19:57;76738.19;;;-145.58;100.00
47897;BME280;39629;51.400;5.494;2023-12-28T11:24:59;76726.13;;;-145.58;100.00
47897;BME280;39629;51.400;5.494;2023-12-28T11:30:01;76728.13;;;-145.58;100.00
47897;BME280;39629;51.400;5.494;2023-12-28T11:35:07;76726.13;;;-145.58;100.00
47897;BME280;39629;51.400;5.494;2023-12-28T11:40:12;76730.13;;;-145.58;100.00
47897;BME280;39629;51.400;5.494;2023-12-28T11:45:16;76726.13;;;-145.58;100.00
47897;BME280;39629;51.400;5.494;2023-12-28T11:50:19;76714.06;;;-145.58;100.00
47897;BME280;39629;51.400;5.494;2023-12-28T11:55:21;76700.00;;;-145.58;100.00
47897;BME280;39629;51.400;5.494;2023-12-28T12:00:24;76700.00;;;-145.58;100.00
47897;BME280;39629;51.400;5.494;2023-12-28T12:05:27;76708.03;;;-145.58;100.00
47897;BME280;39629;51.400;5.494;2023-12-28T12:10:29;76714.06;;;-145.58;100.00
47897;BME280;39629;51.400;5.494;2023-12-28T12:15:32;76712.06;;;-145.58;100.00
47897;BME280;39629;51.400;5.494;2023-12-28T12:20:36;76706.03;;;-145.58;100.00
47897;BME280;39629;51.400;5.494;2023-12-28T12:25:40;76695.97;;;-145.58;100.00
47897;BME280;39629;51.400;5.494;2023-12-28T12:30:49;76681.91;;;-145.58;100.00
47897;BME280;39629;51.400;5.494;2023-12-28T12:35:52;76673.88;;;-145.58;100.00
47897;BME280;39629;51.400;5.494;2023-12-28T12:40:54;76673.88;;;-145.58;100.00
47897;BME280;39629;51.400;5.494;2023-12-28T12:45:56;76675.88;;;-145.58;100.00
47897;BME280;39629;51.400;5.494;2023-12-28T12:51:02;76671.84;;;-145.58;100.00
47897;BME280;39629;51.400;5.494;2023-12-28T12:56:04;76667.84;;;-145.58;100.00
47897;BME280;39629;51.400;5.494;2023-12-28T13:01:09;76657.78;;;-145.58;100.00
47897;BME280;39629;51.400;5.494;2023-12-28T13:06:12;76655.78;;;-145.58;100.00
47897;BME280;39629;51.400;5.494;2023-12-28T13:11:14;76657.78;;;-145.58;100.00
47897;BME280;39629;51.400;5.494;2023-12-28T13:16:16;76647.72;;;-145.58;100.00
47897;BME280;39629;51.400;5.494;2023-12-28T13:21:19;76655.78;;;-145.58;100.00
47897;BME280;39629;51.400;5.494;2023-12-28T13:26:21;76637.69;;;-145.58;100.00
47897;BME280;39629;51.400;5.494;2023-12-28T13:31:22;76635.69;;;-145.58;100.00
47897;BME280;39629;51.400;5.494;2023-12-28T13:36:26;76637.69;;;-145.58;100.00
47897;BME280;39629;51.400;5.494;2023-12-28T13:41:28;76637.69;;;-145.58;100.00
47897;BME280;39629;51.400;5.494;2023-12-28T13:46:31;76629.66;;;-145.58;100.00
47897;BME280;39629;51.400;5.494;2023-12-28T13:51:34;76629.66;;;-145.58;100.00
47897;BME280;39629;51.400;5.494;2023-12-28T13:56:36;76627.63;;;-145.58;100.00
47897;BME280;39629;51.400;5.494;2023-12-28T14:01:38;76635.69;;;-145.58;100.00
47897;BME280;39629;51.400;5.494;2023-12-28T14:06:41;76633.66;;;-145.58;100.00
47897;BME280;39629;51.400;5.494;2023-12-28T14:11:43;76643.72;;;-145.58;100.00
47897;BME280;39629;51.400;5.494;2023-12-28T14:16:45;76661.81;;;-145.58;100.00
47897;BME280;39629;51.400;5.494;2023-12-28T14:21:49;76655.78;;;-145.58;100.00
47897;BME280;39629;51.400;5.494;2023-12-28T14:26:52;76657.78;;;-145.58;100.00
47897;BME280;39629;51.400;5.494;2023-12-28T14:31:55;76669.84;;;-145.58;100.00
47897;BME280;39629;51.400;5.494;2023-12-28T14:36:58;76665.81;;;-145.58;100.00
47897;BME280;39629;51.400;5.494;2023-12-28T14:42:00;76671.84;;;-145.58;100.00
47897;BME280;39629;51.400;5.494;2023-12-28T14:47:04;76683.91;;;-145.58;100.00
47897;BME280;39629;51.400;5.494;2023-12-28T14:52:07;76671.84;;;-145.58;100.00
47897;BME280;39629;51.400;5.494;2023-12-28T14:57:09;76693.97;;;-145.58;100.00
47897;BME280;39629;51.400;5.494;2023-12-28T15:02:12;76697.97;;;-145.58;100.00
47897;BME280;39629;51.400;5.494;2023-12-28T15:07:15;76687.94;;;-145.58;100.00
47897;BME280;39629;51.400;5.494;2023-12-28T15:12:18;76675.88;;;-145.58;100.00
47897;BME280;39629;51.400;5.494;2023-12-28T15:17:21;76697.97;;;-145.58;100.00
47897;BME280;39629;51.400;5.494;2023-12-28T15:22:25;76697.97;;;-145.58;100.00
47897;BME280;39629;51.400;5.494;2023-12-28T15:27:27;76695.97;;;-145.58;100.00
47897;BME280;39629;51.400;5.494;2023-12-28T15:32:29;76714.06;;;-145.58;100.00
47897;BME280;39629;51.400;5.494;2023-12-28T15:37:32;76697.97;;;-145.58;100.00
47897;BME280;39629;51.400;5.494;2023-12-28T15:42:33;76685.91;;;-145.58;100.00
47897;BME280;39629;51.400;5.494;2023-12-28T15:47:35;76689.94;;;-145.58;100.00
47897;BME280;39629;51.400;5.494;2023-12-28T15:52:39;76708.03;;;-145.58;100.00
47897;BME280;39629;51.400;5.494;2023-12-28T15:57:40;76722.09;;;-145.58;100.00
47897;BME280;39629;51.400;5.494;2023-12-28T16:02:42;76726.13;;;-145.58;100.00
47897;BME280;39629;51.400;5.494;2023-12-28T16:07:45;76714.06;;;-145.58;100.00
47897;BME280;39629;51.400;5.494;2023-12-28T16:12:47;76710.03;;;-145.58;100.00
47897;BME280;39629;51.400;5.494;2023-12-28T16:17:49;76708.03;;;-145.58;100.00
47897;BME280;39629;51.400;5.494;2023-12-28T16:22:59;76708.03;;;-145.58;100.00
47897;BME280;39629;51.400;5.494;2023-12-28T16:28:00;76734.16;;;-145.58;100.00
47897;BME280;39629;51.400;5.494;2023-12-28T16:33:02;76702.00;;;-145.58;100.00
47897;BME280;39629;51.400;5.494;2023-12-28T16:38:06;76724.09;;;-145.58;100.00
47897;BME280;39629;51.400;5.494;2023-12-28T16:43:07;76726.13;;;-145.58;100.00
47897;BME280;39629;51.400;5.494;2023-12-28T16:48:09;76728.13;;;-145.58;100.00
47897;BME280;39629;51.400;5.494;2023-12-28T16:53:12;76716.06;;;-145.58;100.00
47897;BME280;39629;51.400;5.494;2023-12-28T16:58:14;76738.19;;;-145.58;100.00
47897;BME280;39629;51.400;5.494;2023-12-28T17:03:16;76748.22;;;-145.58;100.00
47897;BME280;39629;51.400;5.494;2023-12-28T17:08:19;76744.22;;;-145.58;100.00
47897;BME280;39629;51.400;5.494;2023-12-28T17:13:21;76738.19;;;-145.58;100.00
47897;BME280;39629;51.400;5.494;2023-12-28T17:18:24;76736.16;;;-145.58;100.00
47897;BME280;39629;51.400;5.494;2023-12-28T17:23:35;76712.06;;;-145.58;100.00
47897;BME280;39629;51.400;5.494;2023-12-28T17:28:46;76732.16;;;-145.58;100.00
47897;BME280;39629;51.400;5.494;2023-12-28T17:33:48;76720.09;;;-145.58;100.00
47897;BME280;39629;51.400;5.494;2023-12-28T17:38:52;76718.09;;;-145.58;100.00
47897;BME280;39629;51.400;5.494;2023-12-28T17:43:56;76742.19;;;-145.58;100.00
47897;BME280;39629;51.400;5.494;2023-12-28T17:48:59;76718.09;;;-145.58;100.00
47897;BME280;39629;51.400;5.494;2023-12-28T17:54:03;76712.06;;;-145.58;100.00
47897;BME280;39629;51.400;5.494;2023-12-28T17:59:05;76714.06;;;-145.58;100.00
47897;BME280;39629;51.400;5.494;2023-12-28T18:04:06;76697.97;;;-145.58;100.00
47897;BME280;39629;51.400;5.494;2023-12-28T18:09:09;76718.09;;;-145.58;100.00
47897;BME280;39629;51.400;5.494;2023-12-28T18:14:11;76720.09;;;-145.58;100.00
47897;BME280;39629;51.400;5.494;2023-12-28T18:19:13;76714.06;;;-145.58;100.00
47897;BME280;39629;51.400;5.494;2023-12-28T18:24:16;76716.06;;;-145.58;100.00
47897;BME280;39629;51.400;5.494;2023-12-28T18:29:18;76730.13;;;-145.58;100.00
47897;BME280;39629;51.400;5.494;2023-12-28T18:34:20;76714.06;;;-145.58;100.00
47897;BME280;39629;51.400;5.494;2023-12-28T18:39:23;76710.03;;;-145.58;100.00
47897;BME280;39629;51.400;5.494;2023-12-28T18:44:28;76712.06;;;-145.58;100.00
47897;BME280;39629;51.400;5.494;2023-12-28T18:49:33;76708.03;;;-145.58;100.00
47897;BME280;39629;51.400;5.494;2023-12-28T18:54:37;76706.03;;;-145.58;100.00
47897;BME280;39629;51.400;5.494;2023-12-28T18:59:38;76722.09;;;-145.58;100.00
47897;BME280;39629;51.400;5.494;2023-12-28T19:04:40;76730.13;;;-145.58;100.00
47897;BME280;39629;51.400;5.494;2023-12-28T19:09:43;76736.16;;;-145.58;100.00
47897;BME280;39629;51.400;5.494;2023-12-28T19:14:45;76712.06;;;-145.58;100.00
47897;BME280;39629;51.400;5.494;2023-12-28T19:19:46;76714.06;;;-145.58;100.00
47897;BME280;39629;51.400;5.494;2023-12-28T19:24:49;76718.09;;;-145.58;100.00
47897;BME280;39629;51.400;5.494;2023-12-28T19:29:52;76712.06;;;-145.58;100.00
47897;BME280;39629;51.400;5.494;2023-12-28T19:34:53;76702.00;;;-145.58;100.00
47897;BME280;39629;51.400;5.494;2023-12-28T19:39:56;76718.09;;;-145.58;100.00
47897;BME280;39629;51.400;5.494;2023-12-28T19:44:58;76714.06;;;-145.58;100.00
47897;BME280;39629;51.400;5.494;2023-12-28T19:50:00;76718.09;;;-145.58;100.00
47897;BME280;39629;51.400;5.494;2023-12-28T19:55:05;76706.03;;;-145.58;100.00
47897;BME280;39629;51.400;5.494;2023-12-28T20:00:08;76716.06;;;-145.58;100.00
47897;BME280;39629;51.400;5.494;2023-12-28T20:05:11;76708.03;;;-145.58;100.00
47897;BME280;39629;51.400;5.494;2023-12-28T20:10:14;76693.97;;;-145.58;100.00
47897;BME280;39629;51.400;5.494;2023-12-28T20:15:16;76695.97;;;-145.58;100.00
47897;BME280;39629;51.400;5.494;2023-12-28T20:20:20;76697.97;;;-145.58;100.00
47897;BME280;39629;51.400;5.494;2023-12-28T20:25:23;76714.06;;;-145.58;100.00
47897;BME280;39629;51.400;5.494;2023-12-28T20:30:25;76716.06;;;-145.58;100.00
47897;BME280;39629;51.400;5.494;2023-12-28T20:35:28;76704.00;;;-145.58;100.00
47897;BME280;39629;51.400;5.494;2023-12-28T20:40:31;76695.97;;;-145.58;100.00
47897;BME280;39629;51.400;5.494;2023-12-28T20:45:33;76669.84;;;-145.58;100.00
47897;BME280;39629;51.400;5.494;2023-12-28T20:50:34;76681.91;;;-145.58;100.00
47897;BME280;39629;51.400;5.494;2023-12-28T20:55:37;76673.88;;;-145.58;100.00
47897;BME280;39629;51.400;5.494;2023-12-28T21:00:39;76673.88;;;-145.58;100.00
47897;BME280;39629;51.400;5.494;2023-12-28T21:05:41;76655.78;;;-145.58;100.00
47897;BME280;39629;51.400;5.494;2023-12-28T21:10:44;76683.91;;;-145.58;100.00
47897;BME280;39629;51.400;5.494;2023-12-28T21:15:46;76679.91;;;-145.58;100.00
47897;BME280;39629;51.400;5.494;2023-12-28T21:20:48;76655.78;;;-145.58;100.00
47897;BME280;39629;51.400;5.494;2023-12-28T21:25:53;76665.81;;;-145.58;100.00
47897;BME280;39629;51.400;5.494;2023-12-28T21:30:55;76665.81;;;-145.58;100.00
47897;BME280;39629;51.400;5.494;2023-12-28T21:35:56;76647.72;;;-145.58;100.00
47897;BME280;39629;51.400;5.494;2023-12-28T21:40:59;76651.75;;;-145.58;100.00
47897;BME280;39629;51.400;5.494;2023-12-28T21:46:01;76633.66;;;-145.58;100.00
47897;BME280;39629;51.400;5.494;2023-12-28T21:51:03;76625.63;;;-145.58;100.00
47897;BME280;39629;51.400;5.494;2023-12-28T21:56:07;76619.59;;;-145.58;100.00
47897;BME280;39629;51.400;5.494;2023-12-28T22:01:10;76609.53;;;-145.58;100.00
47897;BME280;39629;51.400;5.494;2023-12-28T22:06:12;76607.53;;;-145.58;100.00
47897;BME280;39629;51.400;5.494;2023-12-28T22:11:15;76623.63;;;-145.58;100.00
47897;BME280;39629;51.400;5.494;2023-12-28T22:16:16;76609.53;;;-145.58;100.00
47897;BME280;39629;51.400;5.494;2023-12-28T22:21:18;76611.56;;;-145.58;100.00
47897;BME280;39629;51.400;5.494;2023-12-28T22:26:21;76613.56;;;-145.58;100.00
47897;BME280;39629;51.400;5.494;2023-12-28T22:31:23;76605.53;;;-145.58;100.00
47897;BME280;39629;51.400;5.494;2023-12-28T22:36:24;76607.53;;;-145.58;100.00
47897;BME280;39629;51.400;5.494;2023-12-28T22:41:27;76599.50;;;-145.58;100.00
47897;BME280;39629;51.400;5.494;2023-12-28T22:46:29;76569.34;;;-145.58;100.00
47897;BME280;39629;51.400;5.494;2023-12-28T22:51:31;76597.50;;;-145.58;100.00
47897;BME280;39629;51.400;5.494;2023-12-28T22:56:34;76585.44;;;-145.58;100.00
47897;BME280;39629;51.400;5.494;2023-12-28T23:01:35;76561.31;;;-145.58;100.00
47897;BME280;39629;51.400;5.494;2023-12-28T23:06:38;76575.38;;;-145.58;100.00
47897;BME280;39629;51.400;5.494;2023-12-28T23:11:40;76565.34;;;-145.58;100.00
47897;BME280;39629;51.400;5.494;2023-12-28T23:16:42;76565.34;;;-145.58;100.00
47897;BME280;39629;51.400;5.494;2023-12-28T23:21:44;76553.28;;;-145.58;100.00
47897;BME280;39629;51.400;5.494;2023-12-28T23:26:47;76553.28;;;-145.58;100.00
47897;BME280;39629;51.400;5.494;2023-12-28T23:31:48;76565.34;;;-145.58;100.00
47897;BME280;39629;51.400;5.494;2023-12-28T23:36:50;76561.31;;;-145.58;100.00
47897;BME280;39629;51.400;5.494;2023-12-28T23:41:53;76541.22;;;-145.58;100.00
47897;BME280;39629;51.400;5.494;2023-12-28T23:46:55;76557.28;;;-145.58;100.00
47897;BME280;39629;51.400;5.494;2023-12-28T23:51:56;76547.25;;;-145.58;100.00
47897;BME280;39629;51.400;5.494;2023-12-28T23:57:00;76537.19;;;-145.58;100.00
